sensor_id;sensor_type;location;lat;lon;timestamp;temperature;humidity
19947;DHT22;10135;50.702;7.276;2023-04-24T05:01:23;12.30;56.00
19947;DHT22;10135;50.702;7.276;2023-04-24T05:03:24;12.30;56.00
19947;DHT22;10135;50.702;7.276;2023-04-24T05:05:25;12.30;56.00
19947;DHT22;10135;50.702;7.276;2023-04-24T05:07:26;12.30;56.00
19947;DHT22;10135;50.702;7.276;2023-04-24T05:09:26;12.40;56.00
19947;DHT22;10135;50.702;7.276;2023-04-24T05:11:29;12.40;56.00
19947;DHT22;10135;50.702;7.276;2023-04-24T05:13:30;12.40;56.00
19947;DHT22;10135;50.702;7.276;2023-04-24T05:15:31;12.40;56.00
19947;DHT22;10135;50.702;7.276;2023-04-24T05:17:31;12.40;55.90
19947;DHT22;10135;50.702;7.276;2023-04-24T05:19:32;12.40;56.00
19947;DHT22;10135;50.702;7.276;2023-04-24T05:21:36;12.50;56.10
19947;DHT22;10135;50.702;7.276;2023-04-24T05:23:36;12.50;56.00
19947;DHT22;10135;50.702;7.276;2023-04-24T05:25:37;12.50;56.00
19947;DHT22;10135;50.702;7.276;2023-04-24T05:27:39;12.50;56.00
19947;DHT22;10135;50.702;7.276;2023-04-24T05:29:40;12.50;56.00
19947;DHT22;10135;50.702;7.276;2023-04-24T05:31:41;12.60;56.10
19947;DHT22;10135;50.702;7.276;2023-04-24T05:33:42;12.60;56.00
19947;DHT22;10135;50.702;7.276;2023-04-24T05:35:42;12.60;56.00
19947;DHT22;10135;50.702;7.276;2023-04-24T05:37:46;12.60;55.90
19947;DHT22;10135;50.702;7.276;2023-04-24T05:39:47;12.60;55.90
19947;DHT22;10135;50.702;7.276;2023-04-24T05:41:48;12.60;55.90
19947;DHT22;10135;50.702;7.276;2023-04-24T05:43:48;12.60;55.90
19947;DHT22;10135;50.702;7.276;2023-04-24T05:45:49;12.60;55.90
19947;DHT22;10135;50.702;7.276;2023-04-24T05:47:50;12.60;55.90
19947;DHT22;10135;50.702;7.276;2023-04-24T05:49:52;12.60;55.90
19947;DHT22;10135;50.702;7.276;2023-04-24T05:51:53;12.60;55.90
19947;DHT22;10135;50.702;7.276;2023-04-24T05:53:54;12.60;55.90
19947;DHT22;10135;50.702;7.276;2023-04-24T05:55:55;12.60;55.90
19947;DHT22;10135;50.702;7.276;2023-04-24T05:57:55;12.60;55.90
19947;DHT22;10135;50.702;7.276;2023-04-24T05:59:56;12.60;55.90
19947;DHT22;10135;50.702;7.276;2023-04-24T06:01:57;12.70;56.00
19947;DHT22;10135;50.702;7.276;2023-04-24T06:03:57;12.70;56.10
19947;DHT22;10135;50.702;7.276;2023-04-24T06:05:58;12.70;56.10
19947;DHT22;10135;50.702;7.276;2023-04-24T06:07:59;12.70;56.10
19947;DHT22;10135;50.702;7.276;2023-04-24T06:09:59;12.80;56.10
19947;DHT22;10135;50.702;7.276;2023-04-24T06:12:00;12.80;56.10
19947;DHT22;10135;50.702;7.276;2023-04-24T06:14:01;12.80;56.00
19947;DHT22;10135;50.702;7.276;2023-04-24T06:16:01;12.80;56.00
19947;DHT22;10135;50.702;7.276;2023-04-24T06:18:02;12.90;56.70
19947;DHT22;10135;50.702;7.276;2023-04-24T06:20:04;12.90;56.00
19947;DHT22;10135;50.702;7.276;2023-04-24T06:22:06;12.90;56.00
19947;DHT22;10135;50.702;7.276;2023-04-24T06:24:07;12.90;56.00
19947;DHT22;10135;50.702;7.276;2023-04-24T06:26:07;13.00;56.00
19947;DHT22;10135;50.702;7.276;2023-04-24T06:28:08;13.00;56.00
19947;DHT22;10135;50.702;7.276;2023-04-24T06:30:09;13.00;56.00
19947;DHT22;10135;50.702;7.276;2023-04-24T06:32:10;13.00;56.00
19947;DHT22;10135;50.702;7.276;2023-04-24T06:34:11;13.00;56.00
19947;DHT22;10135;50.702;7.276;2023-04-24T06:36:12;13.00;56.00
19947;DHT22;10135;50.702;7.276;2023-04-24T06:38:13;13.00;56.00
19947;DHT22;10135;50.702;7.276;2023-04-24T06:40:14;13.10;56.00
19947;DHT22;10135;50.702;7.276;2023-04-24T06:42:15;13.10;56.00
19947;DHT22;10135;50.702;7.276;2023-04-24T06:44:16;13.10;56.00
19947;DHT22;10135;50.702;7.276;2023-04-24T06:46:17;13.10;56.10
19947;DHT22;10135;50.702;7.276;2023-04-24T06:48:17;13.10;56.10
19947;DHT22;10135;50.702;7.276;2023-04-24T06:50:18;13.10;56.10
19947;DHT22;10135;50.702;7.276;2023-04-24T06:52:19;13.20;56.20
19947;DHT22;10135;50.702;7.276;2023-04-24T06:54:20;13.20;56.20
19947;DHT22;10135;50.702;7.276;2023-04-24T06:56:20;13.20;56.20
19947;DHT22;10135;50.702;7.276;2023-04-24T06:58:21;13.20;56.10
19947;DHT22;10135;50.702;7.276;2023-04-24T07:00:22;13.20;56.20
19947;DHT22;10135;50.702;7.276;2023-04-24T07:02:24;13.20;56.20
19947;DHT22;10135;50.702;7.276;2023-04-24T07:04:25;13.20;56.80
19947;DHT22;10135;50.702;7.276;2023-04-24T07:06:26;13.10;56.20
19947;DHT22;10135;50.702;7.276;2023-04-24T07:08:27;13.10;56.20
19947;DHT22;10135;50.702;7.276;2023-04-24T07:10:30;13.10;56.20
19947;DHT22;10135;50.702;7.276;2023-04-24T07:12:31;13.10;56.30
19947;DHT22;10135;50.702;7.276;2023-04-24T07:14:32;13.10;56.40
19947;DHT22;10135;50.702;7.276;2023-04-24T07:16:33;13.10;56.40
19947;DHT22;10135;50.702;7.276;2023-04-24T07:18:33;13.10;56.40
19947;DHT22;10135;50.702;7.276;2023-04-24T07:20:34;13.10;56.40
19947;DHT22;10135;50.702;7.276;2023-04-24T07:22:35;13.10;56.50
19947;DHT22;10135;50.702;7.276;2023-04-24T07:24:35;13.00;56.50
19947;DHT22;10135;50.702;7.276;2023-04-24T07:26:37;13.10;56.60
19947;DHT22;10135;50.702;7.276;2023-04-24T07:28:39;13.00;56.60
19947;DHT22;10135;50.702;7.276;2023-04-24T07:30:40;13.00;56.70
19947;DHT22;10135;50.702;7.276;2023-04-24T07:32:40;13.00;56.70
19947;DHT22;10135;50.702;7.276;2023-04-24T07:34:41;13.00;56.90
19947;DHT22;10135;50.702;7.276;2023-04-24T07:36:41;12.90;56.90
19947;DHT22;10135;50.702;7.276;2023-04-24T07:38:43;12.90;56.90
19947;DHT22;10135;50.702;7.276;2023-04-24T07:40:43;12.90;57.00
19947;DHT22;10135;50.702;7.276;2023-04-24T07:42:44;12.90;57.00
19947;DHT22;10135;50.702;7.276;2023-04-24T07:44:44;12.90;57.10
19947;DHT22;10135;50.702;7.276;2023-04-24T07:46:47;12.90;57.10
19947;DHT22;10135;50.702;7.276;2023-04-24T07:48:47;12.90;57.10
19947;DHT22;10135;50.702;7.276;2023-04-24T07:50:48;12.90;57.20
19947;DHT22;10135;50.702;7.276;2023-04-24T07:52:49;12.90;57.20
19947;DHT22;10135;50.702;7.276;2023-04-24T07:54:49;12.90;57.20
19947;DHT22;10135;50.702;7.276;2023-04-24T07:56:50;12.90;57.30
19947;DHT22;10135;50.702;7.276;2023-04-24T07:58:51;12.90;57.40
19947;DHT22;10135;50.702;7.276;2023-04-24T08:00:51;12.90;57.50
19947;DHT22;10135;50.702;7.276;2023-04-24T08:02:52;12.90;57.50
19947;DHT22;10135;50.702;7.276;2023-04-24T08:04:53;12.90;57.50
19947;DHT22;10135;50.702;7.276;2023-04-24T08:06:56;12.90;57.50
19947;DHT22;10135;50.702;7.276;2023-04-24T08:08:58;12.90;57.60
19947;DHT22;10135;50.702;7.276;2023-04-24T08:10:58;12.90;57.60
19947;DHT22;10135;50.702;7.276;2023-04-24T08:12:59;12.90;57.60
19947;DHT22;10135;50.702;7.276;2023-04-24T08:15:00;12.80;57.60
19947;DHT22;10135;50.702;7.276;2023-04-24T08:17:00;12.90;57.70
19947;DHT22;10135;50.702;7.276;2023-04-24T08:19:01;12.90;57.70
19947;DHT22;10135;50.702;7.276;2023-04-24T08:21:02;12.80;57.60
19947;DHT22;10135;50.702;7.276;2023-04-24T08:23:03;12.80;57.70
19947;DHT22;10135;50.702;7.276;2023-04-24T08:25:04;12.70;57.70
19947;DHT22;10135;50.702;7.276;2023-04-24T08:27:05;12.70;57.70
19947;DHT22;10135;50.702;7.276;2023-04-24T08:29:06;12.70;57.70
19947;DHT22;10135;50.702;7.276;2023-04-24T08:31:07;12.70;57.90
19947;DHT22;10135;50.702;7.276;2023-04-24T08:33:07;12.70;57.90
19947;DHT22;10135;50.702;7.276;2023-04-24T08:35:08;12.60;58.00
19947;DHT22;10135;50.702;7.276;2023-04-24T08:37:09;12.60;58.00
19947;DHT22;10135;50.702;7.276;2023-04-24T08:39:10;12.60;58.10
19947;DHT22;10135;50.702;7.276;2023-04-24T08:41:11;12.60;58.20
19947;DHT22;10135;50.702;7.276;2023-04-24T08:43:15;12.50;58.20
19947;DHT22;10135;50.702;7.276;2023-04-24T08:45:16;12.50;58.20
19947;DHT22;10135;50.702;7.276;2023-04-24T08:47:17;12.50;58.20
19947;DHT22;10135;50.702;7.276;2023-04-24T08:49:20;12.40;58.20
19947;DHT22;10135;50.702;7.276;2023-04-24T08:51:22;12.40;58.20
19947;DHT22;10135;50.702;7.276;2023-04-24T08:53:26;12.40;58.30
19947;DHT22;10135;50.702;7.276;2023-04-24T08:55:29;12.40;58.30
19947;DHT22;10135;50.702;7.276;2023-04-24T08:57:31;12.30;58.30
19947;DHT22;10135;50.702;7.276;2023-04-24T08:59:33;12.30;58.20
19947;DHT22;10135;50.702;7.276;2023-04-24T09:01:37;12.20;58.20
19947;DHT22;10135;50.702;7.276;2023-04-24T09:03:40;12.20;58.20
19947;DHT22;10135;50.702;7.276;2023-04-24T09:05:46;12.10;58.10
19947;DHT22;10135;50.702;7.276;2023-04-24T09:07:54;12.10;58.10
19947;DHT22;10135;50.702;7.276;2023-04-24T09:09:56;12.00;58.30
19947;DHT22;10135;50.702;7.276;2023-04-24T09:11:58;11.90;58.10
19947;DHT22;10135;50.702;7.276;2023-04-24T09:13:59;11.90;58.20
19947;DHT22;10135;50.702;7.276;2023-04-24T09:16:01;11.80;58.30
19947;DHT22;10135;50.702;7.276;2023-04-24T09:18:02;11.80;58.40
19947;DHT22;10135;50.702;7.276;2023-04-24T09:20:03;11.80;58.50
19947;DHT22;10135;50.702;7.276;2023-04-24T09:22:05;11.80;58.70
19947;DHT22;10135;50.702;7.276;2023-04-24T09:24:20;11.70;58.70
19947;DHT22;10135;50.702;7.276;2023-04-24T09:26:24;11.70;59.10
19947;DHT22;10135;50.702;7.276;2023-04-24T09:28:29;11.70;58.70
19947;DHT22;10135;50.702;7.276;2023-04-24T09:30:30;11.70;58.90
19947;DHT22;10135;50.702;7.276;2023-04-24T09:32:31;11.70;58.90
19947;DHT22;10135;50.702;7.276;2023-04-24T09:34:33;11.70;59.00
19947;DHT22;10135;50.702;7.276;2023-04-24T09:36:37;11.80;59.10
19947;DHT22;10135;50.702;7.276;2023-04-24T09:38:39;11.80;59.20
19947;DHT22;10135;50.702;7.276;2023-04-24T09:40:40;11.80;59.20
19947;DHT22;10135;50.702;7.276;2023-04-24T09:42:51;11.80;59.30
19947;DHT22;10135;50.702;7.276;2023-04-24T09:44:53;11.80;59.60
19947;DHT22;10135;50.702;7.276;2023-04-24T09:46:58;11.80;59.40
19947;DHT22;10135;50.702;7.276;2023-04-24T09:49:08;11.90;59.50
19947;DHT22;10135;50.702;7.276;2023-04-24T09:51:12;12.00;60.00
19947;DHT22;10135;50.702;7.276;2023-04-24T09:53:13;11.90;59.50
19947;DHT22;10135;50.702;7.276;2023-04-24T09:55:18;12.00;59.60
19947;DHT22;10135;50.702;7.276;2023-04-24T09:57:20;12.00;59.70
19947;DHT22;10135;50.702;7.276;2023-04-24T09:59:21;12.00;59.50
19947;DHT22;10135;50.702;7.276;2023-04-24T10:01:30;12.00;59.50
19947;DHT22;10135;50.702;7.276;2023-04-24T10:03:33;12.00;59.90
19947;DHT22;10135;50.702;7.276;2023-04-24T10:05:35;12.00;59.50
19947;DHT22;10135;50.702;7.276;2023-04-24T10:07:38;12.00;59.60
19947;DHT22;10135;50.702;7.276;2023-04-24T10:09:38;12.00;59.50
19947;DHT22;10135;50.702;7.276;2023-04-24T10:11:44;12.00;59.50
19947;DHT22;10135;50.702;7.276;2023-04-24T10:13:46;12.00;59.80
19947;DHT22;10135;50.702;7.276;2023-04-24T10:15:48;12.00;59.60
19947;DHT22;10135;50.702;7.276;2023-04-24T10:17:50;12.00;59.70
19947;DHT22;10135;50.702;7.276;2023-04-24T10:19:54;12.00;59.70
19947;DHT22;10135;50.702;7.276;2023-04-24T10:21:56;12.10;59.70
19947;DHT22;10135;50.702;7.276;2023-04-24T10:23:57;12.10;59.70
19947;DHT22;10135;50.702;7.276;2023-04-24T10:26:00;12.10;59.70
19947;DHT22;10135;50.702;7.276;2023-04-24T10:28:02;12.10;59.80
19947;DHT22;10135;50.702;7.276;2023-04-24T10:30:05;12.10;59.80
19947;DHT22;10135;50.702;7.276;2023-04-24T10:32:07;12.10;59.90
19947;DHT22;10135;50.702;7.276;2023-04-24T10:34:10;12.10;59.90
19947;DHT22;10135;50.702;7.276;2023-04-24T10:36:12;12.20;60.00
19947;DHT22;10135;50.702;7.276;2023-04-24T10:38:18;12.20;60.00
19947;DHT22;10135;50.702;7.276;2023-04-24T10:40:35;12.20;60.10
19947;DHT22;10135;50.702;7.276;2023-04-24T10:42:40;12.20;60.60
19947;DHT22;10135;50.702;7.276;2023-04-24T10:44:42;12.20;60.30
19947;DHT22;10135;50.702;7.276;2023-04-24T10:46:45;12.20;60.10
19947;DHT22;10135;50.702;7.276;2023-04-24T10:48:54;12.20;60.20
19947;DHT22;10135;50.702;7.276;2023-04-24T10:50:55;12.30;60.70
19947;DHT22;10135;50.702;7.276;2023-04-24T10:53:07;12.30;60.40
19947;DHT22;10135;50.702;7.276;2023-04-24T10:55:13;12.40;61.20
19947;DHT22;10135;50.702;7.276;2023-04-24T10:59:24;12.50;60.70
19947;DHT22;10135;50.702;7.276;2023-04-24T11:01:31;12.50;60.70
19947;DHT22;10135;50.702;7.276;2023-04-24T11:03:34;12.60;60.70
19947;DHT22;10135;50.702;7.276;2023-04-24T11:08:22;12.60;60.90
19947;DHT22;10135;50.702;7.276;2023-04-24T11:10:27;12.60;60.90
19947;DHT22;10135;50.702;7.276;2023-04-24T11:12:28;12.60;60.30
19947;DHT22;10135;50.702;7.276;2023-04-24T11:14:28;12.60;60.30
19947;DHT22;10135;50.702;7.276;2023-04-24T11:16:42;12.60;60.40
19947;DHT22;10135;50.702;7.276;2023-04-24T11:18:45;12.60;60.50
19947;DHT22;10135;50.702;7.276;2023-04-24T11:20:46;12.60;60.40
19947;DHT22;10135;50.702;7.276;2023-04-24T11:22:47;12.60;60.50
19947;DHT22;10135;50.702;7.276;2023-04-24T11:24:53;12.60;60.50
19947;DHT22;10135;50.702;7.276;2023-04-24T11:26:55;12.70;60.60
19947;DHT22;10135;50.702;7.276;2023-04-24T11:29:07;12.70;60.80
19947;DHT22;10135;50.702;7.276;2023-04-24T11:31:37;12.80;61.40
19947;DHT22;10135;50.702;7.276;2023-04-24T11:33:39;12.90;62.70
19947;DHT22;10135;50.702;7.276;2023-04-24T11:35:40;13.10;61.90
19947;DHT22;10135;50.702;7.276;2023-04-24T11:37:42;13.30;62.20
19947;DHT22;10135;50.702;7.276;2023-04-24T11:39:46;13.40;62.00
19947;DHT22;10135;50.702;7.276;2023-04-24T11:41:47;13.60;62.30
19947;DHT22;10135;50.702;7.276;2023-04-24T11:43:47;13.70;61.30
19947;DHT22;10135;50.702;7.276;2023-04-24T11:45:49;13.60;60.90
19947;DHT22;10135;50.702;7.276;2023-04-24T11:47:50;13.70;60.80
19947;DHT22;10135;50.702;7.276;2023-04-24T11:49:51;13.70;60.70
19947;DHT22;10135;50.702;7.276;2023-04-24T11:51:55;13.70;60.70
19947;DHT22;10135;50.702;7.276;2023-04-24T11:53:56;13.70;61.10
19947;DHT22;10135;50.702;7.276;2023-04-24T11:55:57;13.70;61.00
19947;DHT22;10135;50.702;7.276;2023-04-24T11:58:03;13.80;61.20
19947;DHT22;10135;50.702;7.276;2023-04-24T12:00:06;13.80;61.20
19947;DHT22;10135;50.702;7.276;2023-04-24T12:02:08;13.90;61.30
19947;DHT22;10135;50.702;7.276;2023-04-24T12:04:08;14.00;61.30
19947;DHT22;10135;50.702;7.276;2023-04-24T12:06:10;14.00;61.20
19947;DHT22;10135;50.702;7.276;2023-04-24T12:08:11;14.10;61.20
19947;DHT22;10135;50.702;7.276;2023-04-24T12:10:12;14.10;60.90
19947;DHT22;10135;50.702;7.276;2023-04-24T12:12:15;14.10;60.80
19947;DHT22;10135;50.702;7.276;2023-04-24T12:14:17;14.10;60.70
19947;DHT22;10135;50.702;7.276;2023-04-24T12:16:17;14.10;60.60
19947;DHT22;10135;50.702;7.276;2023-04-24T12:18:18;14.10;60.60
19947;DHT22;10135;50.702;7.276;2023-04-24T12:20:30;14.00;60.60
19947;DHT22;10135;50.702;7.276;2023-04-24T12:22:45;14.00;61.00
19947;DHT22;10135;50.702;7.276;2023-04-24T12:25:03;14.00;61.20
19947;DHT22;10135;50.702;7.276;2023-04-24T12:27:05;14.00;61.40
19947;DHT22;10135;50.702;7.276;2023-04-24T12:29:06;14.00;61.00
19947;DHT22;10135;50.702;7.276;2023-04-24T12:31:07;14.00;61.10
19947;DHT22;10135;50.702;7.276;2023-04-24T12:33:08;14.00;61.10
19947;DHT22;10135;50.702;7.276;2023-04-24T12:35:09;14.10;61.20
19947;DHT22;10135;50.702;7.276;2023-04-24T12:37:12;14.10;61.10
19947;DHT22;10135;50.702;7.276;2023-04-24T12:39:19;14.20;61.10
19947;DHT22;10135;50.702;7.276;2023-04-24T12:41:20;14.10;60.90
19947;DHT22;10135;50.702;7.276;2023-04-24T12:43:21;14.10;60.80
19947;DHT22;10135;50.702;7.276;2023-04-24T12:45:22;14.20;60.90
19947;DHT22;10135;50.702;7.276;2023-04-24T12:47:26;14.20;61.10
19947;DHT22;10135;50.702;7.276;2023-04-24T12:49:29;14.30;61.30
19947;DHT22;10135;50.702;7.276;2023-04-24T12:51:30;14.30;61.40
19947;DHT22;10135;50.702;7.276;2023-04-24T12:53:31;14.40;61.50
19947;DHT22;10135;50.702;7.276;2023-04-24T12:55:32;14.50;61.50
19947;DHT22;10135;50.702;7.276;2023-04-24T12:57:33;14.60;61.50
19947;DHT22;10135;50.702;7.276;2023-04-24T12:59:36;14.70;61.30
19947;DHT22;10135;50.702;7.276;2023-04-24T13:01:36;14.70;61.10
19947;DHT22;10135;50.702;7.276;2023-04-24T13:03:37;14.80;61.10
19947;DHT22;10135;50.702;7.276;2023-04-24T13:05:37;14.80;61.00
19947;DHT22;10135;50.702;7.276;2023-04-24T13:07:38;14.80;61.00
19947;DHT22;10135;50.702;7.276;2023-04-24T13:09:40;14.80;61.00
19947;DHT22;10135;50.702;7.276;2023-04-24T13:11:41;14.90;61.10
19947;DHT22;10135;50.702;7.276;2023-04-24T13:13:42;14.90;61.20
19947;DHT22;10135;50.702;7.276;2023-04-24T13:15:43;15.00;61.10
19947;DHT22;10135;50.702;7.276;2023-04-24T13:17:44;15.10;61.00
19947;DHT22;10135;50.702;7.276;2023-04-24T13:19:44;15.20;60.90
19947;DHT22;10135;50.702;7.276;2023-04-24T13:21:45;15.20;60.80
19947;DHT22;10135;50.702;7.276;2023-04-24T13:23:46;15.20;60.70
19947;DHT22;10135;50.702;7.276;2023-04-24T13:25:46;15.20;60.50
19947;DHT22;10135;50.702;7.276;2023-04-24T13:27:47;15.20;60.30
19947;DHT22;10135;50.702;7.276;2023-04-24T13:29:48;15.10;60.00
19947;DHT22;10135;50.702;7.276;2023-04-24T13:31:51;15.10;60.00
19947;DHT22;10135;50.702;7.276;2023-04-24T13:33:55;15.00;60.00
19947;DHT22;10135;50.702;7.276;2023-04-24T13:35:55;15.00;60.00
19947;DHT22;10135;50.702;7.276;2023-04-24T13:37:57;14.90;59.90
19947;DHT22;10135;50.702;7.276;2023-04-24T13:39:58;14.90;60.00
19947;DHT22;10135;50.702;7.276;2023-04-24T13:41:59;14.80;60.00
19947;DHT22;10135;50.702;7.276;2023-04-24T13:43:59;14.80;60.20
19947;DHT22;10135;50.702;7.276;2023-04-24T13:46:00;14.80;60.20
19947;DHT22;10135;50.702;7.276;2023-04-24T13:48:03;14.80;60.20
19947;DHT22;10135;50.702;7.276;2023-04-24T13:50:04;14.90;60.30
19947;DHT22;10135;50.702;7.276;2023-04-24T13:52:05;14.90;60.30
19947;DHT22;10135;50.702;7.276;2023-04-24T13:54:06;14.90;60.20
19947;DHT22;10135;50.702;7.276;2023-04-24T13:56:07;14.90;60.00
19947;DHT22;10135;50.702;7.276;2023-04-24T13:58:09;15.00;60.00
19947;DHT22;10135;50.702;7.276;2023-04-24T14:00:11;15.00;59.80
19947;DHT22;10135;50.702;7.276;2023-04-24T14:02:12;15.00;59.80
19947;DHT22;10135;50.702;7.276;2023-04-24T14:04:12;15.00;59.80
19947;DHT22;10135;50.702;7.276;2023-04-24T14:06:13;15.00;59.80
19947;DHT22;10135;50.702;7.276;2023-04-24T14:08:13;15.10;59.80
19947;DHT22;10135;50.702;7.276;2023-04-24T14:10:14;15.20;60.00
19947;DHT22;10135;50.702;7.276;2023-04-24T14:12:16;15.30;60.00
19947;DHT22;10135;50.702;7.276;2023-04-24T14:14:19;15.40;59.80
19947;DHT22;10135;50.702;7.276;2023-04-24T14:16:20;15.40;59.60
19947;DHT22;10135;50.702;7.276;2023-04-24T14:18:21;15.50;59.50
19947;DHT22;10135;50.702;7.276;2023-04-24T14:20:22;15.50;59.30
19947;DHT22;10135;50.702;7.276;2023-04-24T14:22:23;15.50;59.10
19947;DHT22;10135;50.702;7.276;2023-04-24T14:24:24;15.50;59.10
19947;DHT22;10135;50.702;7.276;2023-04-24T14:26:24;15.50;58.90
19947;DHT22;10135;50.702;7.276;2023-04-24T14:28:25;15.50;58.90
19947;DHT22;10135;50.702;7.276;2023-04-24T14:30:26;15.50;58.80
19947;DHT22;10135;50.702;7.276;2023-04-24T14:32:27;15.40;58.80
19947;DHT22;10135;50.702;7.276;2023-04-24T14:34:28;15.30;58.80
19947;DHT22;10135;50.702;7.276;2023-04-24T14:36:29;15.30;58.80
19947;DHT22;10135;50.702;7.276;2023-04-24T14:38:30;15.20;58.80
19947;DHT22;10135;50.702;7.276;2023-04-24T14:40:31;15.20;58.90
19947;DHT22;10135;50.702;7.276;2023-04-24T14:42:33;15.20;59.00
19947;DHT22;10135;50.702;7.276;2023-04-24T14:44:34;15.10;59.00
19947;DHT22;10135;50.702;7.276;2023-04-24T14:46:35;15.10;59.10
19947;DHT22;10135;50.702;7.276;2023-04-24T14:48:36;15.00;59.10
19947;DHT22;10135;50.702;7.276;2023-04-24T14:50:36;15.10;59.70
19947;DHT22;10135;50.702;7.276;2023-04-24T14:52:37;15.00;59.00
19947;DHT22;10135;50.702;7.276;2023-04-24T14:54:38;15.00;59.60
19947;DHT22;10135;50.702;7.276;2023-04-24T14:56:39;14.90;58.90
19947;DHT22;10135;50.702;7.276;2023-04-24T14:58:41;14.90;58.90
19947;DHT22;10135;50.702;7.276;2023-04-24T15:00:41;14.90;59.00
19947;DHT22;10135;50.702;7.276;2023-04-24T15:02:42;14.80;58.90
19947;DHT22;10135;50.702;7.276;2023-04-24T15:04:44;14.80;58.90
19947;DHT22;10135;50.702;7.276;2023-04-24T15:06:45;14.80;59.00
19947;DHT22;10135;50.702;7.276;2023-04-24T15:08:46;14.80;59.00
19947;DHT22;10135;50.702;7.276;2023-04-24T15:10:47;14.80;59.00
19947;DHT22;10135;50.702;7.276;2023-04-24T15:12:48;14.80;59.00
19947;DHT22;10135;50.702;7.276;2023-04-24T15:14:49;14.80;59.10
19947;DHT22;10135;50.702;7.276;2023-04-24T15:16:49;14.90;59.10
19947;DHT22;10135;50.702;7.276;2023-04-24T15:18:50;14.90;59.10
19947;DHT22;10135;50.702;7.276;2023-04-24T15:20:51;14.90;59.10
19947;DHT22;10135;50.702;7.276;2023-04-24T15:22:51;15.00;59.10
19947;DHT22;10135;50.702;7.276;2023-04-24T15:24:52;15.00;59.00
19947;DHT22;10135;50.702;7.276;2023-04-24T15:26:53;15.10;59.00
19947;DHT22;10135;50.702;7.276;2023-04-24T15:28:55;15.10;58.90
19947;DHT22;10135;50.702;7.276;2023-04-24T15:30:56;15.20;58.80
19947;DHT22;10135;50.702;7.276;2023-04-24T15:32:56;15.30;58.80
19947;DHT22;10135;50.702;7.276;2023-04-24T15:34:57;15.30;59.20
19947;DHT22;10135;50.702;7.276;2023-04-24T15:36:58;15.30;58.40
19947;DHT22;10135;50.702;7.276;2023-04-24T15:39:01;15.40;58.40
19947;DHT22;10135;50.702;7.276;2023-04-24T15:41:03;15.40;58.30
19947;DHT22;10135;50.702;7.276;2023-04-24T15:43:03;15.50;58.30
19947;DHT22;10135;50.702;7.276;2023-04-24T15:45:04;15.50;58.20
19947;DHT22;10135;50.702;7.276;2023-04-24T15:47:05;15.60;58.20
19947;DHT22;10135;50.702;7.276;2023-04-24T15:49:06;15.60;58.10
19947;DHT22;10135;50.702;7.276;2023-04-24T15:51:06;15.70;58.00
19947;DHT22;10135;50.702;7.276;2023-04-24T15:53:07;15.60;57.90
19947;DHT22;10135;50.702;7.276;2023-04-24T15:55:08;15.70;57.90
19947;DHT22;10135;50.702;7.276;2023-04-24T15:57:09;15.70;57.70
19947;DHT22;10135;50.702;7.276;2023-04-24T15:59:12;15.70;57.60
19947;DHT22;10135;50.702;7.276;2023-04-24T16:01:13;15.60;57.50
19947;DHT22;10135;50.702;7.276;2023-04-24T16:03:14;15.60;57.50
19947;DHT22;10135;50.702;7.276;2023-04-24T16:05:15;15.60;57.40
19947;DHT22;10135;50.702;7.276;2023-04-24T16:07:16;15.60;57.40
19947;DHT22;10135;50.702;7.276;2023-04-24T16:09:20;15.60;57.40
19947;DHT22;10135;50.702;7.276;2023-04-24T16:11:20;15.60;57.40
19947;DHT22;10135;50.702;7.276;2023-04-24T16:13:21;15.60;57.40
19947;DHT22;10135;50.702;7.276;2023-04-24T16:15:22;15.60;58.00
19947;DHT22;10135;50.702;7.276;2023-04-24T16:17:23;15.60;57.40
19947;DHT22;10135;50.702;7.276;2023-04-24T16:19:23;15.60;57.40
19947;DHT22;10135;50.702;7.276;2023-04-24T16:21:24;15.50;57.30
19947;DHT22;10135;50.702;7.276;2023-04-24T16:23:26;15.50;57.20
19947;DHT22;10135;50.702;7.276;2023-04-24T16:25:27;15.50;57.20
19947;DHT22;10135;50.702;7.276;2023-04-24T16:27:28;15.50;57.20
19947;DHT22;10135;50.702;7.276;2023-04-24T16:29:29;15.50;57.10
19947;DHT22;10135;50.702;7.276;2023-04-24T16:31:30;15.40;57.00
19947;DHT22;10135;50.702;7.276;2023-04-24T16:33:31;15.40;57.00
19947;DHT22;10135;50.702;7.276;2023-04-24T16:35:32;15.40;57.00
19947;DHT22;10135;50.702;7.276;2023-04-24T16:37:33;15.40;57.00
19947;DHT22;10135;50.702;7.276;2023-04-24T16:39:34;15.40;57.10
19947;DHT22;10135;50.702;7.276;2023-04-24T16:41:35;15.40;57.00
19947;DHT22;10135;50.702;7.276;2023-04-24T16:43:35;15.40;57.00
19947;DHT22;10135;50.702;7.276;2023-04-24T16:45:36;15.30;56.90
19947;DHT22;10135;50.702;7.276;2023-04-24T16:47:37;15.30;56.80
19947;DHT22;10135;50.702;7.276;2023-04-24T16:49:37;15.30;56.80
19947;DHT22;10135;50.702;7.276;2023-04-24T16:51:38;15.20;56.80
19947;DHT22;10135;50.702;7.276;2023-04-24T16:53:38;15.20;56.70
19947;DHT22;10135;50.702;7.276;2023-04-24T16:55:39;15.20;56.80
19947;DHT22;10135;50.702;7.276;2023-04-24T16:57:40;15.20;56.80
19947;DHT22;10135;50.702;7.276;2023-04-24T16:59:41;15.10;56.70
19947;DHT22;10135;50.702;7.276;2023-04-24T17:01:41;15.10;56.70
19947;DHT22;10135;50.702;7.276;2023-04-24T17:03:42;15.10;56.80
19947;DHT22;10135;50.702;7.276;2023-04-24T17:05:43;15.00;56.70
19947;DHT22;10135;50.702;7.276;2023-04-24T17:07:43;15.00;56.80
19947;DHT22;10135;50.702;7.276;2023-04-24T17:09:45;15.00;56.80
19947;DHT22;10135;50.702;7.276;2023-04-24T17:11:46;15.00;56.90
19947;DHT22;10135;50.702;7.276;2023-04-24T17:13:46;15.00;56.90
19947;DHT22;10135;50.702;7.276;2023-04-24T17:15:47;14.90;56.70
19947;DHT22;10135;50.702;7.276;2023-04-24T17:17:48;14.90;56.80
19947;DHT22;10135;50.702;7.276;2023-04-24T17:19:49;14.90;56.80
19947;DHT22;10135;50.702;7.276;2023-04-24T17:21:50;14.90;57.40
19947;DHT22;10135;50.702;7.276;2023-04-24T17:23:51;14.90;56.90
19947;DHT22;10135;50.702;7.276;2023-04-24T17:25:51;14.90;56.90
19947;DHT22;10135;50.702;7.276;2023-04-24T17:27:52;14.90;56.80
19947;DHT22;10135;50.702;7.276;2023-04-24T17:29:53;14.90;56.70
19947;DHT22;10135;50.702;7.276;2023-04-24T17:31:53;14.90;56.70
19947;DHT22;10135;50.702;7.276;2023-04-24T17:33:54;14.90;56.60
19947;DHT22;10135;50.702;7.276;2023-04-24T17:35:58;14.80;56.60
19947;DHT22;10135;50.702;7.276;2023-04-24T17:38:01;14.80;56.60
19947;DHT22;10135;50.702;7.276;2023-04-24T17:40:02;14.80;56.60
19947;DHT22;10135;50.702;7.276;2023-04-24T17:42:03;14.80;56.60
19947;DHT22;10135;50.702;7.276;2023-04-24T17:44:04;14.80;56.60
19947;DHT22;10135;50.702;7.276;2023-04-24T17:46:05;14.80;56.60
19947;DHT22;10135;50.702;7.276;2023-04-24T17:48:07;14.80;56.60
19947;DHT22;10135;50.702;7.276;2023-04-24T17:50:07;14.70;56.50
19947;DHT22;10135;50.702;7.276;2023-04-24T17:52:08;14.70;56.50
19947;DHT22;10135;50.702;7.276;2023-04-24T17:54:10;14.70;56.50